sensor_id;sensor_type;location;lat;lon;timestamp;P1;durP1;ratioP1;P2;durP2;ratioP2
21729;SDS011;11027;51.030;13.812;2023-03-01T00:01:19;29.08;;;18.25;;
21729;SDS011;11027;51.030;13.812;2023-03-01T00:03:46;30.98;;;19.77;;
21729;SDS011;11027;51.030;13.812;2023-03-01T00:06:11;31.30;;;19.35;;
21729;SDS011;11027;51.030;13.812;2023-03-01T00:08:37;30.40;;;18.85;;
21729;SDS011;11027;51.030;13.812;2023-03-01T00:11:25;29.38;;;18.73;;
21729;SDS011;11027;51.030;13.812;2023-03-01T00:13:51;33.50;;;18.88;;
21729;SDS011;11027;51.030;13.812;2023-03-01T00:16:23;32.20;;;18.45;;
21729;SDS011;11027;51.030;13.812;2023-03-01T00:18:50;30.83;;;19.00;;
21729;SDS011;11027;51.030;13.812;2023-03-01T00:21:16;30.13;;;19.42;;
21729;SDS011;11027;51.030;13.812;2023-03-01T00:23:41;28.83;;;18.15;;
21729;SDS011;11027;51.030;13.812;2023-03-01T00:26:08;30.13;;;18.33;;
21729;SDS011;11027;51.030;13.812;2023-03-01T00:28:36;32.05;;;18.70;;
21729;SDS011;11027;51.030;13.812;2023-03-01T00:31:03;31.92;;;19.17;;
21729;SDS011;11027;51.030;13.812;2023-03-01T00:33:29;32.25;;;18.20;;
21729;SDS011;11027;51.030;13.812;2023-03-01T00:35:57;31.27;;;18.42;;
21729;SDS011;11027;51.030;13.812;2023-03-01T00:38:23;28.88;;;18.48;;
21729;SDS011;11027;51.030;13.812;2023-03-01T00:40:48;29.70;;;18.23;;
21729;SDS011;11027;51.030;13.812;2023-03-01T00:43:13;31.88;;;17.60;;
21729;SDS011;11027;51.030;13.812;2023-03-01T00:45:38;30.02;;;18.02;;
21729;SDS011;11027;51.030;13.812;2023-03-01T00:48:04;31.40;;;18.98;;
21729;SDS011;11027;51.030;13.812;2023-03-01T00:50:30;28.25;;;17.20;;
21729;SDS011;11027;51.030;13.812;2023-03-01T00:52:55;27.17;;;17.33;;
21729;SDS011;11027;51.030;13.812;2023-03-01T00:55:21;29.75;;;17.85;;
21729;SDS011;11027;51.030;13.812;2023-03-01T00:57:47;30.27;;;18.20;;
21729;SDS011;11027;51.030;13.812;2023-03-01T01:00:12;30.40;;;18.55;;
21729;SDS011;11027;51.030;13.812;2023-03-01T01:02:38;29.35;;;18.45;;
21729;SDS011;11027;51.030;13.812;2023-03-01T01:05:03;30.63;;;17.83;;
21729;SDS011;11027;51.030;13.812;2023-03-01T01:07:29;28.45;;;17.83;;
21729;SDS011;11027;51.030;13.812;2023-03-01T01:09:54;27.58;;;16.95;;
21729;SDS011;11027;51.030;13.812;2023-03-01T01:12:20;30.25;;;17.98;;
21729;SDS011;11027;51.030;13.812;2023-03-01T01:14:45;28.95;;;18.40;;
21729;SDS011;11027;51.030;13.812;2023-03-01T01:17:11;31.27;;;18.00;;
21729;SDS011;11027;51.030;13.812;2023-03-01T01:19:36;30.20;;;18.67;;
21729;SDS011;11027;51.030;13.812;2023-03-01T01:22:01;28.98;;;17.40;;
21729;SDS011;11027;51.030;13.812;2023-03-01T01:24:27;30.77;;;18.85;;
21729;SDS011;11027;51.030;13.812;2023-03-01T01:26:52;27.52;;;17.85;;
21729;SDS011;11027;51.030;13.812;2023-03-01T01:29:17;27.73;;;17.92;;
21729;SDS011;11027;51.030;13.812;2023-03-01T01:31:43;28.63;;;17.50;;
21729;SDS011;11027;51.030;13.812;2023-03-01T01:34:09;30.73;;;18.70;;
21729;SDS011;11027;51.030;13.812;2023-03-01T01:36:38;31.63;;;18.20;;
21729;SDS011;11027;51.030;13.812;2023-03-01T01:39:04;32.63;;;19.75;;
21729;SDS011;11027;51.030;13.812;2023-03-01T01:41:29;31.38;;;18.13;;
21729;SDS011;11027;51.030;13.812;2023-03-01T01:44:09;30.75;;;18.65;;
21729;SDS011;11027;51.030;13.812;2023-03-01T01:46:36;34.60;;;18.55;;
21729;SDS011;11027;51.030;13.812;2023-03-01T01:49:04;29.08;;;18.00;;
21729;SDS011;11027;51.030;13.812;2023-03-01T01:51:36;26.73;;;17.63;;
21729;SDS011;11027;51.030;13.812;2023-03-01T01:54:05;30.90;;;18.80;;
21729;SDS011;11027;51.030;13.812;2023-03-01T01:56:34;29.58;;;18.70;;
21729;SDS011;11027;51.030;13.812;2023-03-01T01:59:04;32.13;;;18.88;;
21729;SDS011;11027;51.030;13.812;2023-03-01T02:01:30;30.33;;;18.17;;
21729;SDS011;11027;51.030;13.812;2023-03-01T02:03:55;32.90;;;19.85;;
21729;SDS011;11027;51.030;13.812;2023-03-01T02:06:37;34.50;;;19.45;;
21729;SDS011;11027;51.030;13.812;2023-03-01T02:09:11;34.20;;;19.00;;
21729;SDS011;11027;51.030;13.812;2023-03-01T02:11:38;32.60;;;18.85;;
21729;SDS011;11027;51.030;13.812;2023-03-01T02:14:04;31.75;;;19.02;;
21729;SDS011;11027;51.030;13.812;2023-03-01T02:16:30;33.25;;;19.35;;
21729;SDS011;11027;51.030;13.812;2023-03-01T02:18:56;30.42;;;18.92;;
21729;SDS011;11027;51.030;13.812;2023-03-01T02:27:14;28.42;;;17.10;;
21729;SDS011;11027;51.030;13.812;2023-03-01T02:29:41;30.42;;;18.05;;
21729;SDS011;11027;51.030;13.812;2023-03-01T02:32:08;30.30;;;17.92;;
21729;SDS011;11027;51.030;13.812;2023-03-01T02:34:35;29.45;;;18.05;;
21729;SDS011;11027;51.030;13.812;2023-03-01T02:37:05;32.70;;;19.25;;
21729;SDS011;11027;51.030;13.812;2023-03-01T02:39:37;31.13;;;17.60;;
21729;SDS011;11027;51.030;13.812;2023-03-01T02:42:07;30.42;;;18.40;;
21729;SDS011;11027;51.030;13.812;2023-03-01T02:44:36;30.70;;;17.95;;
21729;SDS011;11027;51.030;13.812;2023-03-01T02:47:02;31.88;;;18.65;;
21729;SDS011;11027;51.030;13.812;2023-03-01T02:49:33;30.40;;;17.40;;
21729;SDS011;11027;51.030;13.812;2023-03-01T02:55:04;32.95;;;18.13;;
21729;SDS011;11027;51.030;13.812;2023-03-01T02:57:34;30.65;;;18.02;;
21729;SDS011;11027;51.030;13.812;2023-03-01T03:00:03;29.38;;;18.15;;
21729;SDS011;11027;51.030;13.812;2023-03-01T03:02:32;28.15;;;17.25;;
21729;SDS011;11027;51.030;13.812;2023-03-01T03:05:11;34.75;;;18.60;;
21729;SDS011;11027;51.030;13.812;2023-03-01T03:07:40;31.60;;;19.08;;
21729;SDS011;11027;51.030;13.812;2023-03-01T03:10:09;29.73;;;18.58;;
21729;SDS011;11027;51.030;13.812;2023-03-01T03:12:39;33.97;;;17.80;;
21729;SDS011;11027;51.030;13.812;2023-03-01T03:15:05;32.97;;;18.15;;
21729;SDS011;11027;51.030;13.812;2023-03-01T03:17:33;33.42;;;17.05;;
21729;SDS011;11027;51.030;13.812;2023-03-01T03:20:03;25.45;;;16.17;;
21729;SDS011;11027;51.030;13.812;2023-03-01T03:22:30;31.13;;;17.70;;
21729;SDS011;11027;51.030;13.812;2023-03-01T03:24:56;29.30;;;16.92;;
21729;SDS011;11027;51.030;13.812;2023-03-01T03:27:21;31.08;;;17.25;;
21729;SDS011;11027;51.030;13.812;2023-03-01T03:29:46;33.53;;;17.30;;
21729;SDS011;11027;51.030;13.812;2023-03-01T03:32:12;27.85;;;17.50;;
21729;SDS011;11027;51.030;13.812;2023-03-01T03:34:37;28.63;;;17.02;;
21729;SDS011;11027;51.030;13.812;2023-03-01T03:37:02;28.92;;;17.17;;
21729;SDS011;11027;51.030;13.812;2023-03-01T03:39:28;29.23;;;17.52;;
21729;SDS011;11027;51.030;13.812;2023-03-01T03:41:53;29.13;;;17.27;;
21729;SDS011;11027;51.030;13.812;2023-03-01T03:44:19;29.25;;;18.02;;
21729;SDS011;11027;51.030;13.812;2023-03-01T03:46:45;30.77;;;17.73;;
21729;SDS011;11027;51.030;13.812;2023-03-01T03:49:10;35.90;;;18.15;;
21729;SDS011;11027;51.030;13.812;2023-03-01T03:51:35;32.00;;;18.17;;
21729;SDS011;11027;51.030;13.812;2023-03-01T03:54:01;30.92;;;18.10;;
21729;SDS011;11027;51.030;13.812;2023-03-01T03:56:26;29.88;;;17.77;;
21729;SDS011;11027;51.030;13.812;2023-03-01T03:58:52;30.77;;;18.38;;
21729;SDS011;11027;51.030;13.812;2023-03-01T04:01:17;29.65;;;17.60;;
21729;SDS011;11027;51.030;13.812;2023-03-01T04:03:43;29.20;;;17.88;;
21729;SDS011;11027;51.030;13.812;2023-03-01T04:06:11;30.38;;;18.23;;
21729;SDS011;11027;51.030;13.812;2023-03-01T04:08:37;30.23;;;17.58;;
21729;SDS011;11027;51.030;13.812;2023-03-01T04:11:02;32.38;;;18.30;;
21729;SDS011;11027;51.030;13.812;2023-03-01T04:13:50;28.67;;;17.92;;
21729;SDS011;11027;51.030;13.812;2023-03-01T04:16:16;30.75;;;18.65;;
21729;SDS011;11027;51.030;13.812;2023-03-01T04:18:42;32.55;;;18.20;;
21729;SDS011;11027;51.030;13.812;2023-03-01T04:21:08;32.22;;;18.33;;
21729;SDS011;11027;51.030;13.812;2023-03-01T04:23:33;29.60;;;17.83;;
21729;SDS011;11027;51.030;13.812;2023-03-01T04:25:58;32.42;;;19.00;;
21729;SDS011;11027;51.030;13.812;2023-03-01T04:28:26;31.75;;;18.83;;
21729;SDS011;11027;51.030;13.812;2023-03-01T04:30:52;33.00;;;17.80;;
21729;SDS011;11027;51.030;13.812;2023-03-01T04:33:18;28.63;;;17.55;;
21729;SDS011;11027;51.030;13.812;2023-03-01T04:35:44;29.60;;;18.00;;
21729;SDS011;11027;51.030;13.812;2023-03-01T04:38:09;32.42;;;18.38;;
21729;SDS011;11027;51.030;13.812;2023-03-01T04:40:35;32.03;;;17.85;;
21729;SDS011;11027;51.030;13.812;2023-03-01T04:43:00;30.70;;;16.98;;
21729;SDS011;11027;51.030;13.812;2023-03-01T04:45:27;31.70;;;18.33;;
21729;SDS011;11027;51.030;13.812;2023-03-01T04:47:52;30.48;;;18.33;;
21729;SDS011;11027;51.030;13.812;2023-03-01T04:50:18;28.75;;;18.25;;
21729;SDS011;11027;51.030;13.812;2023-03-01T04:52:45;29.90;;;18.70;;
21729;SDS011;11027;51.030;13.812;2023-03-01T04:55:11;31.08;;;18.35;;
21729;SDS011;11027;51.030;13.812;2023-03-01T04:57:37;32.75;;;18.33;;
21729;SDS011;11027;51.030;13.812;2023-03-01T05:00:03;32.35;;;18.85;;
21729;SDS011;11027;51.030;13.812;2023-03-01T05:02:44;28.65;;;17.83;;
21729;SDS011;11027;51.030;13.812;2023-03-01T05:05:21;31.73;;;17.85;;
21729;SDS011;11027;51.030;13.812;2023-03-01T05:07:59;31.40;;;17.52;;
21729;SDS011;11027;51.030;13.812;2023-03-01T05:10:26;29.42;;;17.35;;
21729;SDS011;11027;51.030;13.812;2023-03-01T05:12:54;33.08;;;18.98;;
21729;SDS011;11027;51.030;13.812;2023-03-01T05:15:22;32.58;;;17.70;;
21729;SDS011;11027;51.030;13.812;2023-03-01T05:17:50;33.85;;;18.80;;
21729;SDS011;11027;51.030;13.812;2023-03-01T05:20:16;30.65;;;18.02;;
21729;SDS011;11027;51.030;13.812;2023-03-01T05:22:41;32.42;;;17.83;;
21729;SDS011;11027;51.030;13.812;2023-03-01T05:25:06;30.65;;;18.02;;
21729;SDS011;11027;51.030;13.812;2023-03-01T05:27:32;31.70;;;18.58;;
21729;SDS011;11027;51.030;13.812;2023-03-01T05:29:58;29.02;;;17.80;;
21729;SDS011;11027;51.030;13.812;2023-03-01T05:32:23;28.67;;;17.42;;
21729;SDS011;11027;51.030;13.812;2023-03-01T05:34:48;33.17;;;17.77;;
21729;SDS011;11027;51.030;13.812;2023-03-01T05:37:13;29.65;;;17.33;;
21729;SDS011;11027;51.030;13.812;2023-03-01T05:39:39;32.38;;;17.83;;
21729;SDS011;11027;51.030;13.812;2023-03-01T05:42:05;32.70;;;17.65;;
21729;SDS011;11027;51.030;13.812;2023-03-01T05:44:30;31.70;;;17.95;;
21729;SDS011;11027;51.030;13.812;2023-03-01T05:46:55;29.90;;;17.98;;
21729;SDS011;11027;51.030;13.812;2023-03-01T05:49:21;29.75;;;17.42;;
21729;SDS011;11027;51.030;13.812;2023-03-01T05:51:49;31.55;;;17.55;;
21729;SDS011;11027;51.030;13.812;2023-03-01T05:54:16;28.70;;;17.05;;
21729;SDS011;11027;51.030;13.812;2023-03-01T05:56:42;30.73;;;17.08;;
21729;SDS011;11027;51.030;13.812;2023-03-01T05:59:08;29.10;;;17.45;;
21729;SDS011;11027;51.030;13.812;2023-03-01T06:01:33;29.15;;;16.75;;
21729;SDS011;11027;51.030;13.812;2023-03-01T06:03:59;31.35;;;17.05;;
21729;SDS011;11027;51.030;13.812;2023-03-01T06:06:25;30.05;;;16.95;;
21729;SDS011;11027;51.030;13.812;2023-03-01T06:08:51;33.28;;;18.50;;
21729;SDS011;11027;51.030;13.812;2023-03-01T06:11:17;34.15;;;18.17;;
21729;SDS011;11027;51.030;13.812;2023-03-01T06:13:43;27.88;;;17.33;;
21729;SDS011;11027;51.030;13.812;2023-03-01T06:16:09;31.98;;;17.88;;
21729;SDS011;11027;51.030;13.812;2023-03-01T06:18:35;34.13;;;18.92;;
21729;SDS011;11027;51.030;13.812;2023-03-01T06:21:01;33.20;;;18.10;;
21729;SDS011;11027;51.030;13.812;2023-03-01T06:23:26;31.65;;;18.80;;
21729;SDS011;11027;51.030;13.812;2023-03-01T06:25:51;30.20;;;17.52;;
21729;SDS011;11027;51.030;13.812;2023-03-01T06:28:17;32.00;;;19.50;;
21729;SDS011;11027;51.030;13.812;2023-03-01T06:30:42;31.00;;;17.92;;
21729;SDS011;11027;51.030;13.812;2023-03-01T06:33:08;29.77;;;17.80;;
21729;SDS011;11027;51.030;13.812;2023-03-01T06:35:33;27.77;;;17.48;;
21729;SDS011;11027;51.030;13.812;2023-03-01T06:38:00;32.70;;;18.13;;
21729;SDS011;11027;51.030;13.812;2023-03-01T06:40:26;29.48;;;17.63;;
21729;SDS011;11027;51.030;13.812;2023-03-01T06:42:52;32.75;;;18.75;;
21729;SDS011;11027;51.030;13.812;2023-03-01T06:45:18;30.98;;;18.35;;
21729;SDS011;11027;51.030;13.812;2023-03-01T06:47:44;35.45;;;18.83;;
21729;SDS011;11027;51.030;13.812;2023-03-01T06:50:09;31.60;;;18.15;;
21729;SDS011;11027;51.030;13.812;2023-03-01T06:52:35;32.25;;;18.63;;
21729;SDS011;11027;51.030;13.812;2023-03-01T06:55:00;30.70;;;18.73;;
21729;SDS011;11027;51.030;13.812;2023-03-01T06:57:26;29.27;;;18.02;;
21729;SDS011;11027;51.030;13.812;2023-03-01T06:59:52;34.58;;;18.60;;
21729;SDS011;11027;51.030;13.812;2023-03-01T07:02:17;33.13;;;18.25;;
21729;SDS011;11027;51.030;13.812;2023-03-01T07:04:42;28.75;;;17.35;;
21729;SDS011;11027;51.030;13.812;2023-03-01T07:07:08;37.80;;;18.33;;
21729;SDS011;11027;51.030;13.812;2023-03-01T07:09:33;32.42;;;18.60;;
21729;SDS011;11027;51.030;13.812;2023-03-01T07:11:59;30.25;;;18.30;;
21729;SDS011;11027;51.030;13.812;2023-03-01T07:14:24;30.65;;;17.67;;
21729;SDS011;11027;51.030;13.812;2023-03-01T07:16:50;32.85;;;19.08;;
21729;SDS011;11027;51.030;13.812;2023-03-01T07:19:19;30.67;;;18.08;;
21729;SDS011;11027;51.030;13.812;2023-03-01T07:21:45;29.92;;;17.40;;
21729;SDS011;11027;51.030;13.812;2023-03-01T07:24:10;29.40;;;18.38;;
21729;SDS011;11027;51.030;13.812;2023-03-01T07:26:36;31.75;;;18.20;;
21729;SDS011;11027;51.030;13.812;2023-03-01T07:29:02;31.50;;;18.60;;
21729;SDS011;11027;51.030;13.812;2023-03-01T07:31:28;28.13;;;17.73;;
21729;SDS011;11027;51.030;13.812;2023-03-01T07:33:54;28.58;;;17.05;;
21729;SDS011;11027;51.030;13.812;2023-03-01T07:36:19;33.13;;;17.63;;
21729;SDS011;11027;51.030;13.812;2023-03-01T07:38:45;29.05;;;17.92;;
21729;SDS011;11027;51.030;13.812;2023-03-01T07:41:10;31.15;;;17.52;;
21729;SDS011;11027;51.030;13.812;2023-03-01T07:43:35;32.67;;;18.67;;
21729;SDS011;11027;51.030;13.812;2023-03-01T07:46:01;31.20;;;17.65;;
21729;SDS011;11027;51.030;13.812;2023-03-01T07:48:27;30.05;;;18.27;;
21729;SDS011;11027;51.030;13.812;2023-03-01T07:50:53;28.80;;;18.00;;
21729;SDS011;11027;51.030;13.812;2023-03-01T07:53:18;35.92;;;19.02;;
21729;SDS011;11027;51.030;13.812;2023-03-01T07:55:43;33.45;;;18.27;;
21729;SDS011;11027;51.030;13.812;2023-03-01T07:58:09;33.83;;;18.40;;
21729;SDS011;11027;51.030;13.812;2023-03-01T08:00:34;29.75;;;18.63;;
21729;SDS011;11027;51.030;13.812;2023-03-01T08:03:00;31.20;;;19.42;;
21729;SDS011;11027;51.030;13.812;2023-03-01T08:05:26;33.40;;;19.73;;
21729;SDS011;11027;51.030;13.812;2023-03-01T08:07:51;36.38;;;19.63;;
21729;SDS011;11027;51.030;13.812;2023-03-01T08:10:16;36.58;;;20.08;;
21729;SDS011;11027;51.030;13.812;2023-03-01T08:12:42;29.70;;;19.15;;
21729;SDS011;11027;51.030;13.812;2023-03-01T08:15:07;33.25;;;19.58;;
21729;SDS011;11027;51.030;13.812;2023-03-01T08:17:33;35.30;;;20.25;;
21729;SDS011;11027;51.030;13.812;2023-03-01T08:19:58;31.42;;;18.98;;
21729;SDS011;11027;51.030;13.812;2023-03-01T08:22:23;34.22;;;19.65;;
21729;SDS011;11027;51.030;13.812;2023-03-01T08:24:49;32.72;;;19.17;;
21729;SDS011;11027;51.030;13.812;2023-03-01T08:27:15;32.97;;;20.30;;
21729;SDS011;11027;51.030;13.812;2023-03-01T08:29:41;31.10;;;19.05;;
21729;SDS011;11027;51.030;13.812;2023-03-01T08:32:06;30.60;;;18.90;;
21729;SDS011;11027;51.030;13.812;2023-03-01T08:34:31;37.97;;;20.02;;
21729;SDS011;11027;51.030;13.812;2023-03-01T08:36:56;31.05;;;18.98;;
21729;SDS011;11027;51.030;13.812;2023-03-01T08:39:22;34.03;;;20.25;;
21729;SDS011;11027;51.030;13.812;2023-03-01T08:41:47;34.13;;;20.90;;
21729;SDS011;11027;51.030;13.812;2023-03-01T08:44:13;37.10;;;20.40;;
21729;SDS011;11027;51.030;13.812;2023-03-01T08:46:43;33.67;;;19.63;;
21729;SDS011;11027;51.030;13.812;2023-03-01T08:49:12;31.10;;;19.85;;
21729;SDS011;11027;51.030;13.812;2023-03-01T08:51:39;36.78;;;20.55;;
21729;SDS011;11027;51.030;13.812;2023-03-01T08:54:10;39.10;;;22.85;;
21729;SDS011;11027;51.030;13.812;2023-03-01T08:56:37;33.72;;;21.13;;
21729;SDS011;11027;51.030;13.812;2023-03-01T08:59:02;40.30;;;22.25;;
21729;SDS011;11027;51.030;13.812;2023-03-01T09:01:28;34.35;;;21.33;;
21729;SDS011;11027;51.030;13.812;2023-03-01T09:03:53;37.83;;;20.90;;
21729;SDS011;11027;51.030;13.812;2023-03-01T09:06:18;28.90;;;20.08;;
21729;SDS011;11027;51.030;13.812;2023-03-01T09:08:45;36.63;;;20.58;;
21729;SDS011;11027;51.030;13.812;2023-03-01T09:11:13;35.28;;;20.73;;
21729;SDS011;11027;51.030;13.812;2023-03-01T09:13:41;37.13;;;20.90;;
21729;SDS011;11027;51.030;13.812;2023-03-01T09:16:07;34.08;;;20.38;;
21729;SDS011;11027;51.030;13.812;2023-03-01T09:18:33;31.65;;;21.25;;
21729;SDS011;11027;51.030;13.812;2023-03-01T09:21:07;37.15;;;22.15;;
21729;SDS011;11027;51.030;13.812;2023-03-01T09:23:37;32.03;;;20.77;;
21729;SDS011;11027;51.030;13.812;2023-03-01T09:26:08;24.65;;;15.90;;
21729;SDS011;11027;51.030;13.812;2023-03-01T09:28:35;34.60;;;21.00;;
21729;SDS011;11027;51.030;13.812;2023-03-01T09:31:01;36.75;;;20.63;;
21729;SDS011;11027;51.030;13.812;2023-03-01T09:33:28;37.53;;;21.88;;
21729;SDS011;11027;51.030;13.812;2023-03-01T09:38:28;37.28;;;21.42;;
21729;SDS011;11027;51.030;13.812;2023-03-01T09:40:53;37.67;;;21.15;;
21729;SDS011;11027;51.030;13.812;2023-03-01T09:43:21;35.03;;;21.48;;
21729;SDS011;11027;51.030;13.812;2023-03-01T09:45:59;35.05;;;20.48;;
21729;SDS011;11027;51.030;13.812;2023-03-01T09:48:31;28.20;;;16.55;;
21729;SDS011;11027;51.030;13.812;2023-03-01T09:51:02;41.70;;;21.95;;
21729;SDS011;11027;51.030;13.812;2023-03-01T09:53:37;37.83;;;21.85;;
21729;SDS011;11027;51.030;13.812;2023-03-01T09:56:09;39.05;;;22.10;;
21729;SDS011;11027;51.030;13.812;2023-03-01T10:01:40;39.25;;;23.20;;
21729;SDS011;11027;51.030;13.812;2023-03-01T10:09:35;36.55;;;21.10;;
21729;SDS011;11027;51.030;13.812;2023-03-01T10:12:04;37.58;;;21.13;;
21729;SDS011;11027;51.030;13.812;2023-03-01T10:14:40;32.90;;;20.38;;
21729;SDS011;11027;51.030;13.812;2023-03-01T10:19:55;37.05;;;21.27;;
21729;SDS011;11027;51.030;13.812;2023-03-01T10:22:39;35.15;;;20.80;;
21729;SDS011;11027;51.030;13.812;2023-03-01T10:25:04;38.55;;;21.08;;
21729;SDS011;11027;51.030;13.812;2023-03-01T10:28:14;38.25;;;21.48;;
21729;SDS011;11027;51.030;13.812;2023-03-01T10:30:26;33.95;;;20.92;;
21729;SDS011;11027;51.030;13.812;2023-03-01T10:32:59;34.05;;;21.35;;
21729;SDS011;11027;51.030;13.812;2023-03-01T10:35:26;33.72;;;21.38;;
21729;SDS011;11027;51.030;13.812;2023-03-01T10:37:56;35.20;;;20.05;;
21729;SDS011;11027;51.030;13.812;2023-03-01T10:40:32;32.10;;;19.15;;
21729;SDS011;11027;51.030;13.812;2023-03-01T10:42:59;29.08;;;18.13;;
21729;SDS011;11027;51.030;13.812;2023-03-01T10:45:35;32.92;;;18.52;;
21729;SDS011;11027;51.030;13.812;2023-03-01T10:48:08;32.53;;;18.23;;
21729;SDS011;11027;51.030;13.812;2023-03-01T10:50:38;30.20;;;17.75;;
21729;SDS011;11027;51.030;13.812;2023-03-01T10:53:04;26.20;;;16.58;;
21729;SDS011;11027;51.030;13.812;2023-03-01T10:55:37;32.53;;;17.80;;
21729;SDS011;11027;51.030;13.812;2023-03-01T10:58:20;29.50;;;17.00;;
21729;SDS011;11027;51.030;13.812;2023-03-01T11:03:24;28.25;;;17.70;;
21729;SDS011;11027;51.030;13.812;2023-03-01T11:05:52;28.45;;;17.25;;
21729;SDS011;11027;51.030;13.812;2023-03-01T11:11:13;27.77;;;17.30;;
21729;SDS011;11027;51.030;13.812;2023-03-01T11:13:50;29.20;;;18.02;;
21729;SDS011;11027;51.030;13.812;2023-03-01T11:16:16;26.33;;;16.77;;
21729;SDS011;11027;51.030;13.812;2023-03-01T11:18:56;30.98;;;16.98;;
21729;SDS011;11027;51.030;13.812;2023-03-01T11:21:24;27.60;;;16.70;;
21729;SDS011;11027;51.030;13.812;2023-03-01T11:23:51;24.42;;;16.13;;
21729;SDS011;11027;51.030;13.812;2023-03-01T11:26:17;27.13;;;16.13;;
21729;SDS011;11027;51.030;13.812;2023-03-01T11:28:44;26.75;;;16.88;;
21729;SDS011;11027;51.030;13.812;2023-03-01T11:31:16;24.60;;;15.02;;
21729;SDS011;11027;51.030;13.812;2023-03-01T11:33:46;23.50;;;15.60;;
21729;SDS011;11027;51.030;13.812;2023-03-01T11:39:27;21.63;;;14.82;;
21729;SDS011;11027;51.030;13.812;2023-03-01T11:42:06;21.77;;;14.98;;
21729;SDS011;11027;51.030;13.812;2023-03-01T11:44:47;22.00;;;13.82;;
21729;SDS011;11027;51.030;13.812;2023-03-01T11:47:23;23.35;;;13.82;;
21729;SDS011;11027;51.030;13.812;2023-03-01T11:55:58;20.40;;;12.13;;
21729;SDS011;11027;51.030;13.812;2023-03-01T11:58:35;21.15;;;13.13;;
21729;SDS011;11027;51.030;13.812;2023-03-01T12:01:22;23.00;;;12.68;;
21729;SDS011;11027;51.030;13.812;2023-03-01T12:06:57;21.10;;;13.75;;
21729;SDS011;11027;51.030;13.812;2023-03-01T12:17:58;22.77;;;15.13;;
21729;SDS011;11027;51.030;13.812;2023-03-01T12:20:57;24.60;;;15.18;;
21729;SDS011;11027;51.030;13.812;2023-03-01T12:26:12;27.10;;;16.02;;
21729;SDS011;11027;51.030;13.812;2023-03-01T12:34:22;26.63;;;16.67;;
21729;SDS011;11027;51.030;13.812;2023-03-01T12:37:04;27.48;;;16.67;;
21729;SDS011;11027;51.030;13.812;2023-03-01T12:40:02;31.13;;;17.02;;
21729;SDS011;11027;51.030;13.812;2023-03-01T12:42:55;29.88;;;17.33;;
21729;SDS011;11027;51.030;13.812;2023-03-01T12:51:02;27.98;;;17.63;;
21729;SDS011;11027;51.030;13.812;2023-03-01T12:53:34;26.52;;;17.38;;
21729;SDS011;11027;51.030;13.812;2023-03-01T12:56:05;23.00;;;16.75;;
21729;SDS011;11027;51.030;13.812;2023-03-01T12:58:42;24.50;;;16.63;;
21729;SDS011;11027;51.030;13.812;2023-03-01T13:04:33;30.73;;;17.45;;
21729;SDS011;11027;51.030;13.812;2023-03-01T13:07:11;27.05;;;17.25;;
21729;SDS011;11027;51.030;13.812;2023-03-01T13:09:51;23.48;;;15.68;;
21729;SDS011;11027;51.030;13.812;2023-03-01T13:12:45;23.38;;;16.40;;
21729;SDS011;11027;51.030;13.812;2023-03-01T13:20:16;27.20;;;16.85;;
21729;SDS011;11027;51.030;13.812;2023-03-01T13:22:43;25.10;;;16.63;;
21729;SDS011;11027;51.030;13.812;2023-03-01T13:25:15;27.33;;;16.92;;
21729;SDS011;11027;51.030;13.812;2023-03-01T13:27:45;25.00;;;16.73;;
21729;SDS011;11027;51.030;13.812;2023-03-01T13:35:52;26.48;;;15.68;;
21729;SDS011;11027;51.030;13.812;2023-03-01T13:38:38;21.50;;;14.80;;
21729;SDS011;11027;51.030;13.812;2023-03-01T13:41:12;20.48;;;13.95;;
21729;SDS011;11027;51.030;13.812;2023-03-01T13:43:42;30.27;;;14.82;;
21729;SDS011;11027;51.030;13.812;2023-03-01T13:46:17;20.10;;;13.93;;
21729;SDS011;11027;51.030;13.812;2023-03-01T13:48:47;21.20;;;14.65;;
21729;SDS011;11027;51.030;13.812;2023-03-01T13:51:19;22.83;;;15.68;;
21729;SDS011;11027;51.030;13.812;2023-03-01T13:53:50;23.40;;;16.17;;
21729;SDS011;11027;51.030;13.812;2023-03-01T13:56:19;19.00;;;15.02;;
21729;SDS011;11027;51.030;13.812;2023-03-01T13:58:49;22.40;;;15.73;;
21729;SDS011;11027;51.030;13.812;2023-03-01T14:01:30;21.60;;;15.25;;
21729;SDS011;11027;51.030;13.812;2023-03-01T14:03:58;25.02;;;16.70;;
21729;SDS011;11027;51.030;13.812;2023-03-01T14:06:25;24.25;;;15.85;;
21729;SDS011;11027;51.030;13.812;2023-03-01T14:11:48;24.38;;;16.33;;
21729;SDS011;11027;51.030;13.812;2023-03-01T14:17:35;18.27;;;14.90;;
21729;SDS011;11027;51.030;13.812;2023-03-01T14:20:36;17.17;;;14.27;;
21729;SDS011;11027;51.030;13.812;2023-03-01T14:23:13;16.70;;;13.80;;
21729;SDS011;11027;51.030;13.812;2023-03-01T14:25:52;18.65;;;13.70;;
21729;SDS011;11027;51.030;13.812;2023-03-01T14:30:52;21.08;;;14.02;;
21729;SDS011;11027;51.030;13.812;2023-03-01T14:33:26;19.05;;;14.10;;
21729;SDS011;11027;51.030;13.812;2023-03-01T14:38:32;17.58;;;14.48;;
21729;SDS011;11027;51.030;13.812;2023-03-01T14:41:00;18.92;;;14.43;;
21729;SDS011;11027;51.030;13.812;2023-03-01T14:43:29;20.15;;;15.48;;
21729;SDS011;11027;51.030;13.812;2023-03-01T14:45:55;21.88;;;15.10;;
21729;SDS011;11027;51.030;13.812;2023-03-01T14:48:21;22.33;;;15.60;;
21729;SDS011;11027;51.030;13.812;2023-03-01T14:50:47;19.95;;;15.15;;
21729;SDS011;11027;51.030;13.812;2023-03-01T14:53:20;20.55;;;14.75;;
21729;SDS011;11027;51.030;13.812;2023-03-01T14:55:48;23.95;;;14.73;;
21729;SDS011;11027;51.030;13.812;2023-03-01T14:58:18;20.27;;;14.63;;
21729;SDS011;11027;51.030;13.812;2023-03-01T15:00:55;21.20;;;15.43;;
21729;SDS011;11027;51.030;13.812;2023-03-01T15:03:24;22.80;;;15.00;;
21729;SDS011;11027;51.030;13.812;2023-03-01T15:05:50;19.73;;;14.80;;
21729;SDS011;11027;51.030;13.812;2023-03-01T15:08:18;23.63;;;15.70;;
21729;SDS011;11027;51.030;13.812;2023-03-01T15:13:42;18.23;;;14.45;;
21729;SDS011;11027;51.030;13.812;2023-03-01T15:16:27;18.65;;;14.23;;
21729;SDS011;11027;51.030;13.812;2023-03-01T15:21:34;18.90;;;12.52;;
21729;SDS011;11027;51.030;13.812;2023-03-01T15:26:43;22.98;;;13.10;;
21729;SDS011;11027;51.030;13.812;2023-03-01T15:29:18;20.73;;;12.50;;
21729;SDS011;11027;51.030;13.812;2023-03-01T15:31:55;20.10;;;11.98;;
21729;SDS011;11027;51.030;13.812;2023-03-01T15:34:27;21.27;;;12.00;;
21729;SDS011;11027;51.030;13.812;2023-03-01T15:36:54;17.02;;;12.23;;
21729;SDS011;11027;51.030;13.812;2023-03-01T15:39:33;17.95;;;12.13;;
21729;SDS011;11027;51.030;13.812;2023-03-01T15:42:02;17.15;;;12.13;;
21729;SDS011;11027;51.030;13.812;2023-03-01T15:44:29;19.58;;;12.27;;
21729;SDS011;11027;51.030;13.812;2023-03-01T15:46:56;15.88;;;11.05;;
21729;SDS011;11027;51.030;13.812;2023-03-01T15:49:33;17.83;;;11.90;;
21729;SDS011;11027;51.030;13.812;2023-03-01T15:52:04;21.15;;;12.18;;
21729;SDS011;11027;51.030;13.812;2023-03-01T15:54:35;19.70;;;12.15;;